createdAt,value
2018-07-07T00:00:22.876Z,101234.42
2018-07-07T00:02:51.229Z,101233.23
2018-07-07T00:05:19.571Z,101236.73
2018-07-07T00:07:47.913Z,101232.70
2018-07-07T00:10:17.396Z,101234.64
2018-07-07T00:12:46.828Z,101241.44
2018-07-07T00:15:18.136Z,101238.82
2018-07-07T00:17:47.928Z,101238.95
2018-07-07T00:20:17.690Z,101247.45
2018-07-07T00:22:46.552Z,101252.36
2018-07-07T00:25:16.141Z,101245.19
2018-07-07T00:27:45.339Z,101248.92
2018-07-07T00:30:13.656Z,101249.27
2018-07-07T00:32:41.996Z,101247.98
2018-07-07T00:35:10.598Z,101250.63
2018-07-07T00:37:39.825Z,101259.59
2018-07-07T00:40:09.978Z,101255.04
2018-07-07T00:42:38.845Z,101264.48
2018-07-07T00:45:07.401Z,101260.10
2018-07-07T00:47:35.788Z,101260.13
2018-07-07T00:50:05.680Z,101261.17
2018-07-07T00:52:35.180Z,101262.05
2018-07-07T00:55:04.300Z,101261.80
2018-07-07T00:57:33.305Z,101267.80
2018-07-07T01:00:01.649Z,101264.20
2018-07-07T01:02:30.879Z,101254.41
2018-07-07T01:04:59.954Z,101261.70
2018-07-07T01:07:28.881Z,101268.16
2018-07-07T01:09:57.894Z,101263.62
2018-07-07T01:12:26.241Z,101275.09
2018-07-07T01:14:54.583Z,101268.19
2018-07-07T01:17:22.913Z,101272.83
2018-07-07T01:19:51.270Z,101270.06
2018-07-07T01:22:19.598Z,101267.09
2018-07-07T01:24:47.934Z,101262.06
2018-07-07T01:27:16.321Z,101260.50
2018-07-07T01:29:44.658Z,101270.78
2018-07-07T01:32:13.057Z,101270.31
2018-07-07T01:34:41.393Z,101269.95
2018-07-07T01:37:09.724Z,101275.81
2018-07-07T01:39:38.073Z,101270.19
2018-07-07T01:42:06.569Z,101262.04
2018-07-07T01:44:36.208Z,101268.39
2018-07-07T01:47:05.619Z,101273.05
2018-07-07T01:49:34.999Z,101269.47
2018-07-07T01:52:05.042Z,101272.27
2018-07-07T01:54:34.745Z,101273.08
2018-07-07T01:57:04.114Z,101266.30
2018-07-07T01:59:33.948Z,101272.94
2018-07-07T02:02:03.595Z,101275.91
2018-07-07T02:04:31.937Z,101278.50
2018-07-07T02:07:01.631Z,101273.42
2018-07-07T02:09:30.870Z,101281.89
2018-07-07T02:12:00.127Z,101284.02
2018-07-07T02:14:28.869Z,101281.13
2018-07-07T02:16:57.846Z,101280.70
2018-07-07T02:19:26.185Z,101276.10
2018-07-07T02:21:54.517Z,101284.95
2018-07-07T02:24:22.864Z,101275.98
2018-07-07T02:26:51.213Z,101275.98
2018-07-07T02:29:19.548Z,101277.97
2018-07-07T02:31:47.908Z,101274.30
2018-07-07T02:34:16.273Z,101279.78
2018-07-07T02:36:44.613Z,101282.75
2018-07-07T02:39:12.976Z,101276.91
2018-07-07T02:41:41.314Z,101276.06
2018-07-07T02:44:09.674Z,101278.89
2018-07-07T02:46:38.021Z,101275.23
2018-07-07T02:49:06.369Z,101281.35
2018-07-07T02:51:35.777Z,101287.32
2018-07-07T02:54:05.142Z,101285.37
2018-07-07T02:56:35.086Z,101282.84
2018-07-07T02:59:04.849Z,101285.75
2018-07-07T03:01:34.415Z,101283.48
2018-07-07T03:04:02.766Z,101293.93
2018-07-07T03:06:31.353Z,101289.32
2018-07-07T03:09:00.663Z,101288.41
2018-07-07T03:11:29.742Z,101289.41
2018-07-07T03:13:58.801Z,101297.59
2018-07-07T03:16:27.149Z,101303.81
2018-07-07T03:18:56.401Z,101304.50
2018-07-07T03:21:24.729Z,101306.05
2018-07-07T03:23:53.278Z,101303.23
2018-07-07T03:26:21.654Z,101305.41
2018-07-07T03:28:50.022Z,101308.81
2018-07-07T03:31:18.397Z,101315.78
2018-07-07T03:33:46.766Z,101317.50
2018-07-07T03:36:15.105Z,101316.67
2018-07-07T03:38:43.500Z,101317.93
2018-07-07T03:41:11.841Z,101319.59
2018-07-07T03:43:40.489Z,101320.32
2018-07-07T03:46:09.070Z,101323.59
2018-07-07T03:48:37.581Z,101315.26
2018-07-07T03:51:05.953Z,101320.91
2018-07-07T03:53:34.598Z,101322.80
2018-07-07T03:56:02.939Z,101320.79
2018-07-07T03:58:31.269Z,101332.39
2018-07-07T04:01:00.086Z,101332.47
2018-07-07T04:03:30.489Z,101336.40
2018-07-07T04:05:59.874Z,101338.30
2018-07-07T04:08:29.021Z,101339.63
2018-07-07T04:10:57.442Z,101339.09
2018-07-07T04:13:25.797Z,101336.59
2018-07-07T04:15:54.136Z,101339.78
2018-07-07T04:18:30.834Z,101341.11
2018-07-07T04:21:00.777Z,101337.16
2018-07-07T04:23:30.157Z,101341.75
2018-07-07T04:25:59.010Z,101339.71
2018-07-07T04:28:28.370Z,101343.89
2018-07-07T04:30:56.715Z,101350.43
2018-07-07T04:33:25.385Z,101352.50
2018-07-07T04:35:53.737Z,101349.31
2018-07-07T04:38:22.089Z,101351.75
2018-07-07T04:40:50.484Z,101353.57
2018-07-07T04:43:19.313Z,101350.00
2018-07-07T04:45:47.866Z,101350.49
2018-07-07T04:48:16.594Z,101359.12
2018-07-07T04:50:45.166Z,101351.23
2018-07-07T04:53:13.501Z,101350.77
2018-07-07T04:55:48.752Z,101353.16
2018-07-07T04:58:17.083Z,101351.73
2018-07-07T05:00:45.478Z,101359.27
2018-07-07T05:03:13.853Z,101358.89
2018-07-07T05:05:42.192Z,101360.81
2018-07-07T05:08:10.560Z,101359.50
2018-07-07T05:10:38.916Z,101365.86
2018-07-07T05:13:07.393Z,101360.38
2018-07-07T05:15:35.857Z,101365.64
2018-07-07T05:18:04.851Z,101367.42
2018-07-07T05:20:34.238Z,101369.33
2018-07-07T05:23:03.278Z,101370.89
2018-07-07T05:25:31.622Z,101371.73
2018-07-07T05:28:00.940Z,101374.38
2018-07-07T05:30:30.369Z,101367.42
2018-07-07T05:32:59.190Z,101364.53
2018-07-07T05:35:27.972Z,101373.40
2018-07-07T05:37:56.352Z,101363.95
2018-07-07T05:40:24.709Z,101373.19
2018-07-07T05:42:53.174Z,101370.16
2018-07-07T05:45:21.894Z,101371.69
2018-07-07T05:47:50.246Z,101365.06
2018-07-07T05:50:18.605Z,101373.71
2018-07-07T05:52:46.959Z,101371.88
2018-07-07T05:55:15.427Z,101373.39
2018-07-07T05:57:43.821Z,101376.69
2018-07-07T06:00:13.388Z,101375.73
2018-07-07T06:02:41.756Z,101375.27
2018-07-07T06:05:15.185Z,101379.22
2018-07-07T06:07:43.648Z,101376.25
2018-07-07T06:10:11.997Z,101379.44
2018-07-07T06:12:40.342Z,101379.95
2018-07-07T06:15:09.205Z,101375.07
2018-07-07T06:17:37.557Z,101373.38
2018-07-07T06:20:05.926Z,101377.21
2018-07-07T06:22:35.656Z,101382.11
2018-07-07T06:25:05.194Z,101386.37
2018-07-07T06:27:35.178Z,101381.33
2018-07-07T06:30:05.225Z,101380.78
2018-07-07T06:32:34.429Z,101382.52
2018-07-07T06:35:02.779Z,101382.95
2018-07-07T06:37:31.153Z,101381.18
2018-07-07T06:40:00.610Z,101377.34
2018-07-07T06:42:30.210Z,101378.56
2018-07-07T06:44:58.575Z,101378.02
2018-07-07T06:47:26.905Z,101373.20
2018-07-07T06:49:55.240Z,101375.65
2018-07-07T06:52:23.593Z,101377.42
2018-07-07T06:54:51.942Z,101376.43
2018-07-07T06:57:20.306Z,101377.76
2018-07-07T06:59:48.653Z,101376.89
2018-07-07T07:02:17.037Z,101378.04
2018-07-07T07:04:45.405Z,101373.46
2018-07-07T07:07:13.800Z,101384.64
2018-07-07T07:09:42.162Z,101369.13
2018-07-07T07:12:10.523Z,101373.53
2018-07-07T07:14:38.885Z,101369.16
2018-07-07T07:17:08.300Z,101367.83
2018-07-07T07:19:36.644Z,101371.91
2018-07-07T07:22:06.009Z,101370.08
2018-07-07T07:24:35.242Z,101369.30
2018-07-07T07:27:04.269Z,101362.82
2018-07-07T07:29:33.332Z,101364.77
2018-07-07T07:32:01.702Z,101372.49
2018-07-07T07:34:31.122Z,101367.28
2018-07-07T07:37:00.301Z,101372.07
2018-07-07T07:39:29.169Z,101372.01
2018-07-07T07:41:57.611Z,101372.73
2018-07-07T07:44:26.182Z,101369.86
2018-07-07T07:46:55.114Z,101366.54
2018-07-07T07:49:23.457Z,101370.03
2018-07-07T07:51:51.805Z,101366.39
2018-07-07T07:54:20.164Z,101364.91
2018-07-07T07:56:48.532Z,101367.86
2018-07-07T07:59:16.891Z,101370.98
2018-07-07T08:01:45.259Z,101364.06
2018-07-07T08:04:13.602Z,101365.80
2018-07-07T08:06:41.966Z,101366.00
2018-07-07T08:09:10.313Z,101365.00
2018-07-07T08:11:38.676Z,101360.11
2018-07-07T08:14:07.135Z,101361.08
2018-07-07T08:16:37.100Z,101362.91
2018-07-07T08:19:06.710Z,101365.77
2018-07-07T08:21:35.694Z,101367.73
2018-07-07T08:24:05.202Z,101371.80
2018-07-07T08:26:34.406Z,101376.58
2018-07-07T08:29:02.777Z,101370.62
2018-07-07T08:31:31.138Z,101369.33
2018-07-07T08:34:00.533Z,101369.64
2018-07-07T08:36:28.937Z,101364.75
2018-07-07T08:38:57.269Z,101359.91
2018-07-07T08:41:25.631Z,101361.77
2018-07-07T08:43:53.972Z,101362.21
2018-07-07T08:46:22.369Z,101368.25
2018-07-07T08:48:50.725Z,101362.89
2018-07-07T08:51:19.065Z,101361.75
2018-07-07T08:53:47.410Z,101355.49
2018-07-07T08:56:15.757Z,101363.73
2018-07-07T08:58:44.133Z,101363.89
2018-07-07T09:01:12.486Z,101363.68
2018-07-07T09:03:40.829Z,101363.02
2018-07-07T09:06:09.166Z,101348.66
2018-07-07T09:08:37.514Z,101340.58
2018-07-07T09:11:06.105Z,101344.91
2018-07-07T09:13:35.038Z,101344.43
2018-07-07T09:16:03.899Z,101350.61
2018-07-07T09:18:32.353Z,101349.24
2018-07-07T09:21:01.793Z,101342.78
2018-07-07T09:23:31.025Z,101344.27
2018-07-07T09:26:00.493Z,101342.39
2018-07-07T09:28:29.237Z,101338.39
2018-07-07T09:30:58.296Z,101344.22
2018-07-07T09:33:26.705Z,101340.09
2018-07-07T09:35:55.060Z,101344.94
2018-07-07T09:38:23.451Z,101338.55
2018-07-07T09:40:51.782Z,101337.88
2018-07-07T09:43:20.129Z,101328.87
2018-07-07T09:45:48.726Z,101325.64
2018-07-07T09:48:17.240Z,101322.69
2018-07-07T09:50:45.597Z,101320.05
2018-07-07T09:53:14.078Z,101321.61
2018-07-07T09:55:42.413Z,101313.36
2018-07-07T09:58:10.749Z,101323.91
2018-07-07T10:00:41.637Z,101324.91
2018-07-07T10:03:10.449Z,101326.09
2018-07-07T10:05:39.184Z,101324.10
2018-07-07T10:08:07.618Z,101325.15
2018-07-07T10:10:36.311Z,101323.31
2018-07-07T10:13:06.470Z,101324.91
2018-07-07T10:15:35.506Z,101336.20
2018-07-07T10:18:04.549Z,101332.94
2018-07-07T10:20:32.878Z,101327.90
2018-07-07T10:23:01.233Z,101328.86
2018-07-07T10:25:30.649Z,101324.47
2018-07-07T10:27:59.937Z,101325.73
2018-07-07T10:30:28.317Z,101318.66
2018-07-07T10:32:56.738Z,101322.00
2018-07-07T10:35:25.077Z,101328.16
2018-07-07T10:37:53.413Z,101325.36
2018-07-07T10:40:21.777Z,101323.59
2018-07-07T10:42:50.111Z,101332.09
2018-07-07T10:45:18.635Z,101322.65
2018-07-07T10:47:47.008Z,101325.02
2018-07-07T10:50:16.105Z,101320.48
2018-07-07T10:52:44.627Z,101322.43
2018-07-07T10:55:12.979Z,101323.59
2018-07-07T10:57:41.416Z,101326.38
2018-07-07T11:00:09.976Z,101324.94
2018-07-07T11:02:38.324Z,101334.52
2018-07-07T11:05:06.758Z,101327.02
2018-07-07T11:07:36.009Z,101325.69
2018-07-07T11:10:05.050Z,101324.27
2018-07-07T11:12:34.825Z,101316.83
2018-07-07T11:15:04.381Z,101325.63
2018-07-07T11:17:33.143Z,101309.84
2018-07-07T11:20:01.686Z,101314.91
2018-07-07T11:22:31.394Z,101313.39
2018-07-07T11:25:00.808Z,101306.25
2018-07-07T11:27:30.348Z,101304.02
2018-07-07T11:29:59.293Z,101302.27
2018-07-07T11:32:28.583Z,101304.17
2018-07-07T11:34:57.066Z,101292.60
2018-07-07T11:37:25.413Z,101301.72
2018-07-07T11:39:53.842Z,101296.77
2018-07-07T11:42:22.238Z,101291.59
2018-07-07T11:44:50.596Z,101292.58
2018-07-07T11:47:18.933Z,101279.61
2018-07-07T11:49:47.271Z,101276.53
2018-07-07T11:52:15.621Z,101273.48
2018-07-07T11:54:44.161Z,101277.09
2018-07-07T11:57:12.503Z,101265.90
2018-07-07T11:59:40.862Z,101270.70
2018-07-07T12:02:09.185Z,101270.59
2018-07-07T12:04:37.572Z,101260.84
2018-07-07T12:07:05.909Z,101272.74
2018-07-07T12:09:35.186Z,101268.73
2018-07-07T12:12:04.285Z,101265.49
2018-07-07T12:14:33.273Z,101268.91
2018-07-07T12:17:01.617Z,101268.89
2018-07-07T12:19:30.776Z,101263.95
2018-07-07T12:22:00.427Z,101263.94
2018-07-07T12:24:29.306Z,101262.00
2018-07-07T12:26:58.227Z,101261.38
2018-07-07T12:29:26.568Z,101261.02
2018-07-07T12:31:54.918Z,101244.48
2018-07-07T12:34:23.261Z,101250.36
2018-07-07T12:36:51.585Z,101258.41
2018-07-07T12:39:19.905Z,101252.09
2018-07-07T12:41:48.267Z,101249.09
2018-07-07T12:44:16.617Z,101250.34
2018-07-07T12:46:44.954Z,101244.66
2018-07-07T12:49:13.281Z,101248.62
2018-07-07T12:51:41.664Z,101245.82
2018-07-07T12:54:10.144Z,101248.20
2018-07-07T12:56:38.489Z,101250.34
2018-07-07T12:59:06.830Z,101238.03
2018-07-07T13:01:36.593Z,101242.30
2018-07-07T13:04:05.973Z,101246.31
2018-07-07T13:06:35.028Z,101239.49
2018-07-07T13:09:03.800Z,101233.37
2018-07-07T13:11:32.148Z,101228.59
2018-07-07T13:14:01.704Z,101227.06
2018-07-07T13:16:30.752Z,101232.84
2018-07-07T13:19:00.148Z,101231.89
2018-07-07T13:21:29.726Z,101214.98
2018-07-07T13:23:58.670Z,101230.09
2018-07-07T13:26:27.061Z,101229.66
2018-07-07T13:28:55.418Z,101218.83
2018-07-07T13:31:23.773Z,101233.06
2018-07-07T13:33:52.122Z,101225.00
2018-07-07T13:36:20.496Z,101222.77
2018-07-07T13:38:48.843Z,101230.34
2018-07-07T13:41:17.223Z,101230.67
2018-07-07T13:43:45.562Z,101228.55
2018-07-07T13:46:13.933Z,101232.38
2018-07-07T13:48:42.285Z,101227.88
2018-07-07T13:51:10.669Z,101224.82
2018-07-07T13:53:39.053Z,101235.56
2018-07-07T13:56:07.420Z,101227.92
2018-07-07T13:58:36.222Z,101231.15
2018-07-07T14:01:05.725Z,101222.42
2018-07-07T14:03:34.869Z,101230.92
2018-07-07T14:06:04.326Z,101223.34
2018-07-07T14:08:33.645Z,101229.26
2018-07-07T14:11:02.057Z,101227.58
2018-07-07T14:13:31.361Z,101229.45
2018-07-07T14:16:00.561Z,101233.25
2018-07-07T14:18:29.488Z,101242.21
2018-07-07T14:20:57.917Z,101236.12
2018-07-07T14:23:26.308Z,101231.56
2018-07-07T14:25:54.638Z,101229.64
2018-07-07T14:28:23.157Z,101224.27
2018-07-07T14:30:51.499Z,101219.31
2018-07-07T14:33:19.889Z,101220.45
2018-07-07T14:35:48.241Z,101213.81
2018-07-07T14:38:16.635Z,101217.05
2018-07-07T14:40:57.033Z,101214.81
2018-07-07T14:43:35.437Z,101220.22
2018-07-07T14:46:08.046Z,101213.66
2018-07-07T14:48:36.415Z,101208.25
2018-07-07T14:51:05.913Z,101210.62
2018-07-07T14:53:34.998Z,101208.81
2018-07-07T14:56:04.718Z,101207.50
2018-07-07T14:58:34.078Z,101204.97
2018-07-07T15:01:03.670Z,101206.77
2018-07-07T15:03:32.074Z,101215.66
2018-07-07T15:06:01.372Z,101216.52
2018-07-07T15:08:30.751Z,101204.78
2018-07-07T15:11:00.393Z,101209.81
2018-07-07T15:13:29.460Z,101203.88
2018-07-07T15:15:57.875Z,101198.77
2018-07-07T15:18:26.242Z,101197.83
2018-07-07T15:20:54.936Z,101196.47
2018-07-07T15:23:23.371Z,101187.92
2018-07-07T15:25:51.732Z,101188.56
2018-07-07T15:28:20.074Z,101189.16
2018-07-07T15:30:48.602Z,101187.22
2018-07-07T15:33:16.940Z,101183.83
2018-07-07T15:35:45.381Z,101188.84
2018-07-07T15:38:13.797Z,101186.75
2018-07-07T15:40:42.502Z,101175.09
2018-07-07T15:43:10.948Z,101176.74
2018-07-07T15:45:39.646Z,101176.02
2018-07-07T15:48:08.068Z,101182.20
2018-07-07T15:50:36.508Z,101175.36
2018-07-07T15:53:06.105Z,101174.98
2018-07-07T15:55:35.414Z,101170.51
2018-07-07T15:58:04.402Z,101162.70
2018-07-07T16:00:33.195Z,101165.63
2018-07-07T16:03:01.588Z,101162.52
2018-07-07T16:05:31.102Z,101177.70
2018-07-07T16:07:59.978Z,101166.23
2018-07-07T16:10:29.370Z,101166.16
2018-07-07T16:12:58.395Z,101159.98
2018-07-07T16:15:26.750Z,101164.14
2018-07-07T16:17:55.089Z,101165.05
2018-07-07T16:20:23.440Z,101162.66
2018-07-07T16:22:52.149Z,101160.20
2018-07-07T16:25:20.506Z,101151.05
2018-07-07T16:27:48.893Z,101154.85
2018-07-07T16:30:17.254Z,101158.37
2018-07-07T16:32:45.581Z,101151.41
2018-07-07T16:35:13.959Z,101148.00
2018-07-07T16:37:42.306Z,101152.25
2018-07-07T16:40:10.721Z,101143.66
2018-07-07T16:42:39.425Z,101145.11
2018-07-07T16:45:08.209Z,101149.50
2018-07-07T16:47:36.577Z,101149.59
2018-07-07T16:50:05.626Z,101144.61
2018-07-07T16:52:35.101Z,101146.77
2018-07-07T16:55:04.949Z,101147.72
2018-07-07T16:57:34.681Z,101144.33
2018-07-07T17:00:04.217Z,101148.79
2018-07-07T17:02:33.438Z,101140.85
2018-07-07T17:05:01.789Z,101144.25
2018-07-07T17:07:30.639Z,101146.16
2018-07-07T17:09:59.437Z,101152.62
2018-07-07T17:12:28.499Z,101146.06
2018-07-07T17:14:56.875Z,101147.63
2018-07-07T17:17:25.247Z,101147.89
2018-07-07T17:19:53.710Z,101146.85
2018-07-07T17:22:22.113Z,101158.67
2018-07-07T17:24:50.469Z,101156.56
2018-07-07T17:27:18.836Z,101151.47
2018-07-07T17:29:47.222Z,101153.19
2018-07-07T17:32:15.593Z,101151.38
2018-07-07T17:34:43.953Z,101156.86
2018-07-07T17:37:12.359Z,101150.09
2018-07-07T17:39:40.733Z,101157.77
2018-07-07T17:42:09.286Z,101155.09
2018-07-07T17:44:37.940Z,101158.30
2018-07-07T17:47:09.454Z,101155.36
2018-07-07T17:49:38.267Z,101154.93
2018-07-07T17:52:07.122Z,101159.72
2018-07-07T17:54:35.997Z,101151.94
2018-07-07T17:57:05.221Z,101161.34
2018-07-07T17:59:34.229Z,101160.81
2018-07-07T18:02:03.716Z,101160.23
2018-07-07T18:04:32.081Z,101156.73
2018-07-07T18:07:01.414Z,101155.63
2018-07-07T18:09:30.702Z,101163.45
2018-07-07T18:11:59.602Z,101171.59
2018-07-07T18:14:27.988Z,101165.74
2018-07-07T18:16:56.335Z,101167.64
2018-07-07T18:19:24.685Z,101169.06
2018-07-07T18:21:53.021Z,101163.78
2018-07-07T18:24:21.399Z,101167.80
2018-07-07T18:26:49.745Z,101167.27
2018-07-07T18:29:18.117Z,101169.61
2018-07-07T18:31:46.962Z,101168.72
2018-07-07T18:34:15.311Z,101170.05
2018-07-07T18:36:43.668Z,101173.14
2018-07-07T18:39:12.142Z,101178.39
2018-07-07T18:41:40.522Z,101173.50
2018-07-07T18:44:08.970Z,101178.25
2018-07-07T18:46:37.294Z,101179.06
2018-07-07T18:49:06.729Z,101168.36
2018-07-07T18:51:36.213Z,101172.89
2018-07-07T18:54:05.575Z,101173.31
2018-07-07T18:56:34.017Z,101181.31
2018-07-07T18:59:02.321Z,101177.41
2018-07-07T19:01:31.739Z,101177.47
2018-07-07T19:04:01.225Z,101181.85
2018-07-07T19:06:30.823Z,101174.94
2018-07-07T19:08:59.638Z,101178.03
2018-07-07T19:11:28.061Z,101172.23
2018-07-07T19:13:56.394Z,101175.13
2018-07-07T19:16:24.773Z,101176.94
2018-07-07T19:18:53.145Z,101182.27
2018-07-07T19:21:26.871Z,101183.35
2018-07-07T19:24:00.733Z,101190.66
2018-07-07T19:26:34.529Z,101190.42
2018-07-07T19:29:04.247Z,101194.95
2018-07-07T19:31:36.814Z,101189.19
2018-07-07T19:34:11.414Z,101200.20
2018-07-07T19:36:45.068Z,101193.54
2018-07-07T19:39:14.900Z,101202.70
2018-07-07T19:41:43.263Z,101199.23
2018-07-07T19:44:11.974Z,101197.70
2018-07-07T19:46:40.471Z,101199.53
2018-07-07T19:49:08.918Z,101202.22
2018-07-07T19:51:37.300Z,101199.58
2018-07-07T19:54:07.270Z,101200.89
2018-07-07T19:56:36.507Z,101196.91
2018-07-07T19:59:06.020Z,101202.23
2018-07-07T20:01:35.594Z,101209.22
2018-07-07T20:04:05.370Z,101203.73
2018-07-07T20:06:33.837Z,101208.21
2018-07-07T20:09:02.322Z,101208.40
2018-07-07T20:11:31.937Z,101214.05
2018-07-07T20:14:01.637Z,101210.55
2018-07-07T20:17:13.276Z,101211.50
2018-07-07T20:19:56.082Z,101206.55
2018-07-07T20:22:24.701Z,101200.23
2018-07-07T20:24:53.142Z,101211.04
2018-07-07T20:27:26.757Z,101215.34
2018-07-07T20:29:55.157Z,101223.95
2018-07-07T20:32:28.762Z,101225.91
2018-07-07T20:34:57.161Z,101222.71
2018-07-07T20:37:25.530Z,101220.41
2018-07-07T20:39:53.995Z,101219.75
2018-07-07T20:42:22.369Z,101225.20
2018-07-07T20:44:50.733Z,101218.73
2018-07-07T20:47:19.102Z,101223.86
2018-07-07T20:49:47.486Z,101230.02
2018-07-07T20:52:15.944Z,101225.62
2018-07-07T20:54:44.306Z,101219.63
2018-07-07T20:57:12.683Z,101233.38
2018-07-07T20:59:41.037Z,101232.86
2018-07-07T21:02:09.676Z,101235.86
2018-07-07T21:04:38.011Z,101235.86
2018-07-07T21:07:06.455Z,101239.18
2018-07-07T21:09:36.035Z,101240.81
2018-07-07T21:12:05.395Z,101239.30
2018-07-07T21:14:33.753Z,101245.61
2018-07-07T21:17:02.194Z,101251.41
2018-07-07T21:19:31.601Z,101250.09
2018-07-07T21:22:01.206Z,101253.71
2018-07-07T21:24:30.756Z,101256.32
2018-07-07T21:27:00.070Z,101258.00
2018-07-07T21:29:29.796Z,101259.61
2018-07-07T21:31:58.602Z,101262.88
2018-07-07T21:34:26.983Z,101262.02
2018-07-07T21:36:55.453Z,101260.31
2018-07-07T21:39:23.992Z,101269.45
2018-07-07T21:41:52.533Z,101266.28
2018-07-07T21:44:21.043Z,101260.77
2018-07-07T21:46:49.570Z,101262.42
2018-07-07T21:49:17.955Z,101271.35
2018-07-07T21:51:46.314Z,101268.30
2018-07-07T21:54:14.689Z,101270.91
2018-07-07T21:56:43.270Z,101273.77
2018-07-07T21:59:16.965Z,101274.55
2018-07-07T22:01:56.351Z,101275.05
2018-07-07T22:04:30.774Z,101279.47
2018-07-07T22:07:04.696Z,101278.58
2018-07-07T22:09:34.821Z,101275.60
2018-07-07T22:12:03.845Z,101279.34
2018-07-07T22:14:33.288Z,101280.35
2018-07-07T22:17:02.161Z,101287.80
2018-07-07T22:19:31.293Z,101281.75
2018-07-07T22:22:04.889Z,101287.34
2018-07-07T22:24:34.145Z,101292.09
2018-07-07T22:27:04.599Z,101288.70
2018-07-07T22:29:34.015Z,101288.19
2018-07-07T22:32:04.365Z,101288.63
2018-07-07T22:34:35.162Z,101290.63
2018-07-07T22:37:05.352Z,101286.84
2018-07-07T22:39:36.889Z,101297.52
2018-07-07T22:42:08.541Z,101298.37
2018-07-07T22:44:37.601Z,101306.95
2018-07-07T22:47:06.208Z,101305.58
2018-07-07T22:49:35.168Z,101304.53
2018-07-07T22:52:04.401Z,101303.38
2018-07-07T22:54:32.879Z,101298.78
2018-07-07T22:57:02.187Z,101295.61
2018-07-07T22:59:31.634Z,101304.97
2018-07-07T23:02:00.926Z,101297.67
2018-07-07T23:04:29.687Z,101293.70
2018-07-07T23:06:59.107Z,101296.88
2018-07-07T23:09:27.625Z,101292.22
2018-07-07T23:11:56.143Z,101295.08
2018-07-07T23:14:25.371Z,101305.11
2018-07-07T23:16:57.530Z,101293.22
2018-07-07T23:19:25.901Z,101295.47
2018-07-07T23:21:54.276Z,101294.19
2018-07-07T23:24:22.642Z,101296.70
2018-07-07T23:26:51.004Z,101290.07
2018-07-07T23:29:19.361Z,101293.05
2018-07-07T23:31:47.710Z,101298.19
2018-07-07T23:34:16.118Z,101298.88
2018-07-07T23:36:44.465Z,101303.47
2018-07-07T23:39:12.824Z,101299.84
2018-07-07T23:41:41.191Z,101299.80
2018-07-07T23:44:09.594Z,101302.63
2018-07-07T23:46:38.969Z,101295.73
2018-07-07T23:49:07.326Z,101295.66
2018-07-07T23:51:37.048Z,101296.91
2018-07-07T23:54:06.584Z,101299.95
2018-07-07T23:56:36.380Z,101298.37
2018-07-07T23:59:05.997Z,101298.73
